Warning: Javascript must be enabled to use all the features on this page!


Page Loading - Please Wait...

* We've detected you're using a mobile device. Find our Next Generation Station Page here.
Click to hideNews Bulletins

Peak Streamflow for the Nation

USGS 11022500 SAN DIEGO R NR SANTEE CA

San Diego County, California
Hydrologic Unit Code 18070304
Latitude  32°49'29", Longitude 117°03'17" NAD27
Drainage area 377  square miles
Gage datum 180.00 feet above NGVD29
Output formats
Table
Graph
Tab-separated file
peakfq (watstore) format
Reselect output format
Water
Year
Date Gage
Height
(feet)
Stream-
flow
(cfs)
1915 1915-02-11 13.60 3,9606
1916 1916-01-27 25.10 70,2006
1917 1917-02-23 11.40 1,0406
1918 1918-03-12 13.50 12,0006
1919 1919-03-22 6.20 99.06
1920 1920-03-26 10.80 1,5806
1921 1921-03-14 0.53 15.06
1922 1921-12-26 10.40 16,7006
1923 1922-12-14 1.70 3606
1924 1924   0.006,Bm
1925 1925   0.006,Bm
1926 1926-04-06 5.30 4,5406
1927 1927-02-16 18.10 45,4006
1928 1928-02-04 1.18 1566
1929 1929-04-05 1.90 4406
1930 1930-03-16 2.35 7606
1931 1931-02-05 3.90 2,4006
1932 1932-02-16 7.20 7,4006
1933 1933-01-30 2.95 1,2306
1934 1934-03-23 0.42 7.006
1935 1935-02-06 3.12 1,0906
1936 1936-02-16 3.08 1,2406
1937 1937-02-07 9.40 14,2006
1938 1938-03-03 7.05 7,3506
1939 1939-02-04 2.53 7666
1940 1940-02-03 3.00 1,1706
1941 1941-04-13 7.75 9,2506
1942 1942-01-01 0.90 1176
1943 1943-01-27 3.26 1,4006
1944 1944-02-23 2.59 8576
1945 1944-11-14 1.39 2526
1946 1945-12-23 2.63 8856
1947 1946-11-24   0.401,6
1948 1947-12-01 1.21 1906
1949 1949-01-13 2.09 5506
1950 1950-02-07 0.53 18.06
1951 1951-03-01 0.26 1.806
1952 1952-01-18 5.57 4,3906
1953 1953-03-02 0.90 7.406
1954 1954-03-25 2.23 6586
1955 1955-01-19 2.296 90.06
1956 1956-04-14 2.17 62.06
1957 1957-01-29 2.622 1656
1958 1958-04-03 5.85 2,7506
1959 1959-02-21 2.48 1406
1960 1960-01-12 2.74 1966
1961 1961-03-28 2.48 1406
1962 1962-01-20 4.99 1,6406
1963 1963-03-17 3.32 3486
1964 1964-01-22 3.83 4786
1965 1965-04-09 4.45 4606
1966 1965-11-23 7.55 1,8006
1967 1966-12-06 9.30 3,4006
1968 1967-12-18 5.24 6266
1969 1969-02-25 7.59 1,8306
1970 1970-03-05 5.24 6266
1971 1970-12-21 5.66 6226
1972 1971-12-26 3.75 2306
1973 1973-02-13 5.13 5096
1974 1974-01-08 5.92 6576
1975 1974-12-04 7.67 1,2806
1976 1976-02-08 7.72 1,2106
1977 1977-01-03 6.60 8616
1978 1978-01-15 10.95 3,0106
1979 1979-01-31 11.26 2,6906
1980 1980-02-21 12.82 3,4206
1981 1981-01-28 8.50 1,3706
?
  Peak Gage-Height Qualification Codes.
?
  Peak Streamflow Qualification Codes.